createdAt,value
2018-11-22T00:00:38.420Z,32.93
2018-11-22T00:04:42.397Z,32.87
2018-11-22T00:08:46.430Z,36.77
2018-11-22T00:12:50.462Z,33.43
2018-11-22T00:16:54.440Z,37.80
2018-11-22T00:20:58.513Z,34.90
2018-11-22T00:25:02.578Z,38.27
2018-11-22T00:29:06.557Z,40.10
2018-11-22T00:33:10.724Z,38.47
2018-11-22T00:37:14.802Z,33.70
2018-11-22T00:41:18.762Z,36.13
2018-11-22T00:45:24.362Z,39.80
2018-11-22T00:49:28.661Z,36.63
2018-11-22T00:53:32.811Z,36.97
2018-11-22T00:57:36.873Z,36.30
2018-11-22T01:01:40.871Z,40.67
2018-11-22T01:05:44.904Z,35.27
2018-11-22T01:09:48.887Z,33.77
2018-11-22T01:13:53.047Z,34.77
2018-11-22T01:17:57.048Z,34.57
2018-11-22T01:22:01.105Z,40.83
2018-11-22T01:26:05.213Z,41.77
2018-11-22T01:30:14.085Z,39.90
2018-11-22T01:34:18.024Z,37.20
2018-11-22T01:38:22.073Z,33.93
2018-11-22T01:42:26.097Z,40.07
2018-11-22T01:46:30.162Z,39.33
2018-11-22T01:50:34.474Z,34.00
2018-11-22T01:54:38.485Z,38.87
2018-11-22T01:58:42.506Z,45.73
2018-11-22T02:02:46.522Z,40.70
2018-11-22T02:06:50.621Z,39.83
2018-11-22T02:10:54.680Z,48.87
2018-11-22T02:14:58.697Z,46.63
2018-11-22T02:19:02.727Z,46.63
2018-11-22T02:23:06.751Z,45.17
2018-11-22T02:27:10.766Z,44.90
2018-11-22T02:31:14.809Z,39.00
2018-11-22T02:35:18.975Z,43.80
2018-11-22T02:39:23.057Z,39.00
2018-11-22T02:43:27.023Z,42.37
2018-11-22T02:47:30.976Z,43.33
2018-11-22T02:51:35.105Z,35.83
2018-11-22T02:55:39.128Z,45.63
2018-11-22T02:59:43.179Z,41.43
2018-11-22T03:03:47.170Z,44.07
2018-11-22T03:07:51.233Z,40.03
2018-11-22T03:11:55.228Z,46.10
2018-11-22T03:15:59.173Z,45.23
2018-11-22T03:20:03.203Z,42.17
2018-11-22T03:24:07.175Z,42.67
2018-11-22T03:28:11.212Z,43.70
2018-11-22T03:32:15.264Z,43.63
2018-11-22T03:36:19.230Z,43.90
2018-11-22T03:40:24.485Z,44.50
2018-11-22T03:44:28.555Z,46.47
2018-11-22T03:48:32.516Z,45.90
2018-11-22T03:52:36.695Z,44.27
2018-11-22T03:56:40.720Z,41.03
2018-11-22T04:00:44.714Z,47.77
2018-11-22T04:04:49.166Z,43.27
2018-11-22T04:08:53.188Z,35.97
2018-11-22T04:12:57.233Z,45.00
2018-11-22T04:17:01.238Z,39.97
2018-11-22T04:21:05.416Z,42.97
2018-11-22T04:25:10.797Z,42.37
2018-11-22T04:29:14.813Z,42.77
2018-11-22T04:33:18.772Z,44.13
2018-11-22T04:37:22.766Z,37.73
2018-11-22T04:41:26.703Z,36.17
2018-11-22T04:45:30.662Z,37.77
2018-11-22T04:49:34.813Z,39.13
2018-11-22T04:53:38.862Z,34.20
2018-11-22T04:57:42.824Z,36.57
2018-11-22T05:01:46.763Z,35.47
2018-11-22T05:05:50.724Z,38.80
2018-11-22T05:09:54.722Z,37.73
2018-11-22T05:13:58.769Z,33.17
2018-11-22T05:18:02.746Z,37.30
2018-11-22T05:22:06.704Z,54.60
2018-11-22T05:26:10.828Z,41.00
2018-11-22T05:30:16.586Z,43.97
2018-11-22T05:34:20.623Z,41.63
2018-11-22T05:38:24.758Z,46.47
2018-11-22T05:42:28.762Z,44.33
2018-11-22T05:46:32.712Z,43.27
2018-11-22T05:50:36.742Z,44.70
2018-11-22T05:54:40.756Z,45.90
2018-11-22T05:58:44.778Z,51.17
2018-11-22T06:02:48.989Z,47.17
2018-11-22T06:06:52.991Z,60.17
2018-11-22T06:10:56.978Z,56.47
2018-11-22T06:15:01.035Z,56.57
2018-11-22T06:19:05.120Z,52.97
2018-11-22T06:23:09.089Z,64.17
2018-11-22T06:27:13.090Z,52.40
2018-11-22T06:31:18.186Z,79.93
2018-11-22T06:35:22.696Z,67.13
2018-11-22T06:39:26.708Z,58.40
2018-11-22T06:43:30.753Z,65.60
2018-11-22T06:47:34.676Z,62.33
2018-11-22T06:51:38.674Z,52.80
2018-11-22T06:55:42.734Z,59.70
2018-11-22T06:59:46.711Z,54.13
2018-11-22T07:03:50.844Z,56.07
2018-11-22T07:07:55.350Z,51.53
2018-11-22T07:11:59.417Z,49.30
2018-11-22T07:16:03.418Z,47.03
2018-11-22T07:20:09.629Z,40.20
2018-11-22T07:24:13.582Z,36.67
2018-11-22T07:28:17.552Z,42.63
2018-11-22T07:32:21.592Z,40.50
2018-11-22T12:16:59.128Z,39.50
2018-11-22T12:21:03.115Z,47.37
2018-11-22T12:25:08.787Z,43.07
2018-11-22T12:29:13.293Z,42.00
2018-11-22T12:33:22.839Z,49.70
2018-11-22T12:37:31.765Z,42.50
2018-11-22T12:41:35.736Z,44.90
2018-11-22T12:45:39.672Z,44.87
2018-11-22T12:49:43.756Z,40.03
2018-11-22T12:53:47.808Z,39.30
2018-11-22T12:57:51.836Z,36.00
2018-11-22T13:01:55.846Z,39.67
2018-11-22T13:05:59.950Z,38.20
2018-11-22T13:10:05.301Z,35.17
2018-11-22T13:14:09.371Z,38.43
2018-11-22T13:18:13.422Z,40.67
2018-11-22T13:22:17.388Z,33.93
2018-11-22T13:26:21.453Z,34.57
2018-11-22T13:30:26.852Z,35.80
2018-11-22T13:34:30.849Z,34.80
2018-11-22T13:38:34.951Z,32.93
2018-11-22T13:42:39.650Z,34.30
2018-11-22T13:46:43.663Z,33.73
2018-11-22T13:50:47.722Z,37.27
2018-11-22T13:54:51.748Z,31.53
2018-11-22T13:58:55.718Z,32.60
2018-11-22T14:03:01.294Z,34.37
2018-11-22T14:07:05.400Z,33.27
2018-11-22T14:11:13.556Z,37.23
2018-11-22T14:15:15.615Z,30.73
2018-11-22T14:19:19.659Z,35.63
2018-11-22T14:23:23.663Z,32.43
2018-11-22T14:27:27.636Z,35.63
2018-11-22T14:31:31.630Z,32.33
2018-11-22T14:35:35.569Z,34.53
2018-11-22T14:39:39.619Z,29.90
2018-11-22T14:43:43.612Z,30.27
2018-11-22T14:47:48.809Z,29.77
2018-11-22T14:51:54.198Z,27.80
2018-11-22T14:55:58.202Z,29.10
2018-11-22T15:00:02.228Z,33.53
2018-11-22T15:04:06.327Z,32.20
2018-11-22T15:08:10.400Z,54.30
2018-11-22T15:12:14.403Z,34.13
2018-11-22T15:16:18.420Z,33.67
2018-11-22T15:20:22.632Z,32.23
2018-11-22T15:24:26.679Z,37.07
2018-11-22T15:28:30.620Z,34.13
2018-11-22T15:32:34.533Z,34.13
2018-11-22T15:36:38.551Z,37.13
2018-11-22T15:40:42.512Z,38.30
2018-11-22T15:44:46.472Z,42.07
2018-11-22T15:48:50.519Z,45.83
2018-11-22T15:52:54.556Z,43.87
2018-11-22T15:56:59.355Z,47.15
2018-11-22T16:01:03.470Z,50.07
2018-11-22T16:05:08.514Z,46.90
2018-11-22T16:09:12.643Z,46.93
2018-11-22T16:13:16.815Z,50.07
2018-11-22T16:17:20.767Z,52.90
2018-11-22T16:21:24.723Z,45.33
2018-11-22T16:25:28.770Z,45.73
2018-11-22T16:29:32.823Z,45.67
2018-11-22T16:33:36.911Z,44.13
2018-11-22T16:37:40.995Z,49.83
2018-11-22T16:41:44.933Z,48.60
2018-11-22T16:45:48.995Z,47.10
2018-11-22T16:49:52.992Z,49.13
2018-11-22T16:53:57.129Z,46.63
2018-11-22T16:58:02.116Z,47.50
2018-11-22T17:02:06.119Z,50.93
2018-11-22T17:06:10.124Z,50.17
2018-11-22T17:10:15.472Z,47.97
2018-11-22T17:14:19.442Z,47.00
2018-11-22T17:18:23.399Z,48.47
2018-11-22T17:22:27.362Z,51.53
2018-11-22T17:26:31.331Z,48.13
2018-11-22T17:30:38.147Z,53.50
2018-11-22T17:34:42.196Z,53.30
2018-11-22T17:38:46.156Z,54.87
2018-11-22T17:42:50.273Z,53.90
2018-11-22T17:46:54.686Z,54.17
2018-11-22T17:50:58.792Z,58.83
2018-11-22T17:55:02.850Z,68.23
2018-11-22T17:59:06.880Z,66.57
2018-11-22T18:03:10.945Z,56.43
2018-11-22T18:07:16.044Z,54.77
2018-11-22T18:11:20.194Z,51.97
2018-11-22T18:15:24.939Z,52.37
2018-11-22T18:19:28.907Z,59.53
2018-11-22T18:23:33.062Z,57.40
2018-11-22T18:27:37.242Z,57.87
2018-11-22T18:31:41.259Z,58.30
2018-11-22T18:35:45.243Z,61.90
2018-11-22T18:39:49.289Z,67.33
2018-11-22T18:43:53.287Z,61.77
2018-11-22T18:47:57.334Z,71.87
2018-11-22T18:52:01.372Z,71.60
2018-11-22T18:56:05.549Z,66.93
2018-11-22T19:00:13.687Z,74.10
2018-11-22T19:04:17.788Z,70.70
2018-11-22T19:08:21.880Z,69.83
2018-11-22T19:12:25.867Z,67.23
2018-11-22T19:16:29.915Z,75.90
2018-11-22T19:20:35.459Z,68.23
2018-11-22T19:24:40.111Z,64.00
2018-11-22T19:28:43.511Z,52.97
2018-11-22T19:32:48.730Z,63.60
2018-11-22T19:36:52.793Z,110.80
2018-11-22T19:40:56.814Z,60.07
2018-11-22T19:45:00.803Z,52.90
2018-11-22T19:49:04.793Z,45.53
2018-11-22T19:53:10.279Z,54.67
2018-11-22T19:57:14.414Z,50.13
2018-11-22T20:01:18.505Z,54.33
2018-11-22T20:05:23.635Z,53.30
2018-11-22T20:09:27.644Z,49.17
2018-11-22T20:13:31.690Z,51.27
2018-11-22T20:17:35.828Z,54.67
2018-11-22T20:21:39.954Z,49.17
2018-11-22T20:25:44.039Z,52.13
2018-11-22T20:29:48.047Z,49.83
2018-11-22T20:33:52.135Z,53.13
2018-11-22T20:37:56.242Z,62.00
2018-11-22T20:42:00.235Z,59.67
2018-11-22T20:46:04.291Z,56.90
2018-11-22T20:50:10.395Z,61.43
2018-11-22T20:54:14.422Z,56.00
2018-11-22T20:58:18.463Z,68.17
2018-11-22T21:02:22.471Z,66.53
2018-11-22T21:06:26.475Z,60.77
2018-11-22T21:10:31.567Z,63.57
2018-11-22T21:14:35.710Z,60.90
2018-11-22T21:18:40.101Z,62.63
2018-11-22T21:22:44.116Z,57.80
2018-11-22T21:26:48.584Z,63.03
2018-11-22T21:30:52.578Z,55.43
2018-11-22T21:34:56.617Z,60.40
2018-11-22T21:39:00.649Z,64.27
2018-11-22T21:43:04.932Z,102.40
2018-11-22T21:47:08.963Z,59.33
2018-11-22T21:51:13.151Z,57.20
2018-11-22T21:55:21.782Z,52.27
2018-11-22T21:59:25.855Z,55.00
2018-11-22T22:03:29.886Z,59.30
2018-11-22T22:07:33.902Z,59.60
2018-11-22T22:11:38.025Z,59.90
2018-11-22T22:15:42.056Z,62.47
2018-11-22T22:19:46.051Z,65.23
2018-11-22T22:23:50.088Z,64.03
2018-11-22T22:27:54.476Z,65.57
2018-11-22T22:31:58.518Z,64.80
2018-11-22T22:36:02.559Z,69.47
2018-11-22T22:40:08.923Z,74.57
2018-11-22T22:44:12.924Z,74.67
2018-11-22T22:48:16.944Z,74.67
2018-11-22T22:52:21.377Z,78.47
2018-11-22T22:56:25.344Z,76.80
2018-11-22T23:00:34.853Z,84.83
2018-11-22T23:04:38.894Z,83.90
2018-11-22T23:08:42.919Z,78.67
2018-11-22T23:12:46.927Z,81.90
2018-11-22T23:16:51.041Z,90.60
2018-11-22T23:20:55.072Z,81.23
2018-11-22T23:24:59.125Z,87.80
2018-11-22T23:29:03.083Z,77.37
2018-11-22T23:33:08.265Z,88.57
2018-11-22T23:37:12.191Z,85.20
2018-11-22T23:41:16.144Z,79.80
2018-11-22T23:45:21.406Z,86.30
2018-11-22T23:49:25.407Z,78.57
2018-11-22T23:53:29.501Z,78.03
2018-11-22T23:57:33.508Z,73.63
